createdAt,value
2018-07-10T00:00:32.277Z,14.66
2018-07-10T00:01:32.275Z,14.74
2018-07-10T00:02:32.264Z,14.63
2018-07-10T00:03:32.263Z,14.69
2018-07-10T00:04:32.253Z,14.7
2018-07-10T00:05:32.255Z,14.69
2018-07-10T00:06:32.053Z,14.8
2018-07-10T00:07:32.248Z,14.77
2018-07-10T00:08:31.985Z,14.86
2018-07-10T00:09:31.712Z,14.85
2018-07-10T00:10:31.963Z,14.86
2018-07-10T00:11:32.219Z,14.86
2018-07-10T00:12:31.955Z,14.89
2018-07-10T00:13:32.202Z,14.86
2018-07-10T00:14:32.197Z,15
2018-07-10T00:15:32.197Z,15
2018-07-10T00:16:31.928Z,15
2018-07-10T00:17:32.181Z,15.04
2018-07-10T00:18:32.174Z,15.08
2018-07-10T00:19:31.912Z,15.07
2018-07-10T00:20:32.166Z,15
2018-07-10T00:21:32.161Z,15.08
2018-07-10T00:22:32.152Z,15.07
2018-07-10T00:23:32.147Z,15.02
2018-07-10T00:24:32.144Z,15.02
2018-07-10T00:25:31.879Z,15.08
2018-07-10T00:26:32.131Z,15.15
2018-07-10T00:27:32.124Z,15.07
2018-07-10T00:28:31.860Z,15.05
2018-07-10T00:29:32.115Z,15.04
2018-07-10T00:30:32.113Z,15.02
2018-07-10T00:31:32.110Z,15
2018-07-10T00:32:32.100Z,15.01
2018-07-10T00:33:32.094Z,14.94
2018-07-10T00:34:31.836Z,14.95
2018-07-10T00:35:31.825Z,14.94
2018-07-10T00:36:32.074Z,14.87
2018-07-10T00:37:31.819Z,14.89
2018-07-10T00:38:32.063Z,14.85
2018-07-10T00:39:32.063Z,14.85
2018-07-10T00:40:32.051Z,14.83
2018-07-10T00:41:31.793Z,14.79
2018-07-10T00:42:31.530Z,14.74
2018-07-10T00:43:31.783Z,14.71
2018-07-10T00:44:32.031Z,14.67
2018-07-10T00:45:32.026Z,14.79
2018-07-10T00:46:32.025Z,14.67
2018-07-10T00:47:32.020Z,14.63
2018-07-10T00:48:32.021Z,14.61
2018-07-10T00:49:32.009Z,14.7
2018-07-10T00:50:32.000Z,14.64
2018-07-10T00:51:31.741Z,14.7
2018-07-10T00:52:32.000Z,14.63
2018-07-10T00:53:31.989Z,14.63
2018-07-10T00:54:31.723Z,14.63
2018-07-10T00:55:31.721Z,14.69
2018-07-10T00:56:31.712Z,14.66
2018-07-10T00:57:31.961Z,14.59
2018-07-10T00:58:31.956Z,14.6
2018-07-10T00:59:31.950Z,14.56
2018-07-10T01:00:31.691Z,14.52
2018-07-10T01:01:31.943Z,14.56
2018-07-10T01:02:31.676Z,14.57
2018-07-10T01:03:31.927Z,14.42
2018-07-10T01:04:31.923Z,14.56
2018-07-10T01:05:31.920Z,14.51
2018-07-10T01:06:31.655Z,14.46
2018-07-10T01:07:31.649Z,14.51
2018-07-10T01:08:31.900Z,14.57
2018-07-10T01:09:31.638Z,14.49
2018-07-10T01:10:31.908Z,14.53
2018-07-10T01:11:31.886Z,14.59
2018-07-10T01:12:31.878Z,14.52
2018-07-10T01:13:31.871Z,14.51
2018-07-10T01:14:31.868Z,14.48
2018-07-10T01:15:31.870Z,14.46
2018-07-10T01:16:31.860Z,14.45
2018-07-10T01:17:31.853Z,14.46
2018-07-10T01:18:31.593Z,14.48
2018-07-10T01:19:31.840Z,14.53
2018-07-10T01:20:31.836Z,14.48
2018-07-10T01:21:31.832Z,14.49
2018-07-10T01:22:31.567Z,14.45
2018-07-10T01:23:31.822Z,14.48
2018-07-10T01:24:31.556Z,14.49
2018-07-10T01:25:31.292Z,14.45
2018-07-10T01:26:31.804Z,14.3
2018-07-10T01:27:31.538Z,14.36
2018-07-10T01:28:31.788Z,14.36
2018-07-10T01:29:31.788Z,14.31
2018-07-10T01:30:31.781Z,14.42
2018-07-10T01:31:31.776Z,14.31
2018-07-10T01:32:31.790Z,14.44
2018-07-10T01:33:31.769Z,14.31
2018-07-10T01:34:31.756Z,14.48
2018-07-10T01:35:31.752Z,14.41
2018-07-10T01:36:31.488Z,14.34
2018-07-10T01:37:31.743Z,14.31
2018-07-10T01:38:31.737Z,14.28
2018-07-10T01:39:31.731Z,14.3
2018-07-10T01:40:31.464Z,14.26
2018-07-10T01:41:31.718Z,14.26
2018-07-10T01:42:31.710Z,14.28
2018-07-10T01:43:31.443Z,14.31
2018-07-10T01:44:31.700Z,14.28
2018-07-10T01:45:31.437Z,14.33
2018-07-10T01:46:31.173Z,14.3
2018-07-10T01:47:31.683Z,14.27
2018-07-10T01:48:31.679Z,14.33
2018-07-10T01:49:31.672Z,14.28
2018-07-10T01:50:31.663Z,14.36
2018-07-10T01:51:31.400Z,14.31
2018-07-10T01:52:31.395Z,14.36
2018-07-10T01:53:31.390Z,14.44
2018-07-10T01:54:31.384Z,14.39
2018-07-10T01:55:31.380Z,14.45
2018-07-10T01:56:31.743Z,14.48
2018-07-10T01:57:31.380Z,14.44
2018-07-10T01:58:31.619Z,14.48
2018-07-10T01:59:31.355Z,14.49
2018-07-10T02:00:31.350Z,14.51
2018-07-10T02:01:31.604Z,14.53
2018-07-10T02:02:31.337Z,14.49
2018-07-10T02:03:31.331Z,14.48
2018-07-10T02:04:31.325Z,14.46
2018-07-10T02:05:31.316Z,14.56
2018-07-10T02:06:31.056Z,14.49
2018-07-10T02:07:31.563Z,14.52
2018-07-10T02:08:31.301Z,14.48
2018-07-10T02:09:31.297Z,14.49
2018-07-10T02:10:31.552Z,14.48
2018-07-10T02:11:31.288Z,14.57
2018-07-10T02:12:31.278Z,14.46
2018-07-10T02:13:31.530Z,14.52
2018-07-10T02:14:31.272Z,14.53
2018-07-10T02:15:31.517Z,14.48
2018-07-10T02:16:31.510Z,14.48
2018-07-10T02:17:31.503Z,14.51
2018-07-10T02:18:31.502Z,14.52
2018-07-10T02:19:30.980Z,14.52
2018-07-10T02:20:31.232Z,14.46
2018-07-10T02:21:31.228Z,14.48
2018-07-10T02:22:31.477Z,14.51
2018-07-10T02:23:31.214Z,14.51
2018-07-10T02:24:31.218Z,14.51
2018-07-10T02:25:31.462Z,14.51
2018-07-10T02:26:31.455Z,14.57
2018-07-10T02:27:31.451Z,14.48
2018-07-10T02:28:31.185Z,14.51
2018-07-10T02:29:31.437Z,14.49
2018-07-10T02:30:31.435Z,14.49
2018-07-10T02:31:31.172Z,14.49
2018-07-10T02:32:31.169Z,14.49
2018-07-10T02:33:31.412Z,14.61
2018-07-10T02:34:31.424Z,14.49
2018-07-10T02:35:31.417Z,14.51
2018-07-10T02:36:31.411Z,14.53
2018-07-10T02:37:31.396Z,14.56
2018-07-10T02:38:31.132Z,14.49
2018-07-10T02:39:31.392Z,14.51
2018-07-10T02:40:31.377Z,14.59
2018-07-10T02:41:31.375Z,14.56
2018-07-10T02:42:31.105Z,14.66
2018-07-10T02:43:31.359Z,14.6
2018-07-10T02:44:31.095Z,14.61
2018-07-10T02:45:31.343Z,14.63
2018-07-10T02:46:31.337Z,14.67
2018-07-10T02:47:31.343Z,14.7
2018-07-10T02:48:31.072Z,14.66
2018-07-10T02:49:30.807Z,14.74
2018-07-10T02:50:30.808Z,14.67
2018-07-10T02:51:31.063Z,14.66
2018-07-10T02:52:31.306Z,14.67
2018-07-10T02:53:31.299Z,14.6
2018-07-10T02:54:31.048Z,14.77
2018-07-10T02:55:31.284Z,14.64
2018-07-10T02:56:31.029Z,14.74
2018-07-10T02:57:31.274Z,14.69
2018-07-10T02:58:31.276Z,14.69
2018-07-10T02:59:31.276Z,14.71
2018-07-10T03:00:31.004Z,14.83
2018-07-10T03:01:31.254Z,14.8
2018-07-10T03:02:31.257Z,14.74
2018-07-10T03:03:31.245Z,14.74
2018-07-10T03:04:30.979Z,14.74
2018-07-10T03:05:31.243Z,14.69
2018-07-10T03:06:31.226Z,14.74
2018-07-10T03:07:31.228Z,14.82
2018-07-10T03:08:30.957Z,14.83
2018-07-10T03:09:31.205Z,14.82
2018-07-10T03:10:31.211Z,14.8
2018-07-10T03:11:31.198Z,14.8
2018-07-10T03:12:30.936Z,14.79
2018-07-10T03:13:30.931Z,14.83
2018-07-10T03:14:30.670Z,14.75
2018-07-10T03:15:30.925Z,14.7
2018-07-10T03:16:31.170Z,14.8
2018-07-10T03:17:31.173Z,14.74
2018-07-10T03:18:31.163Z,14.75
2018-07-10T03:19:30.900Z,14.77
2018-07-10T03:20:31.148Z,14.71
2018-07-10T03:21:31.150Z,14.69
2018-07-10T03:22:30.884Z,14.71
2018-07-10T03:23:31.145Z,14.67
2018-07-10T03:24:30.899Z,14.74
2018-07-10T03:25:30.861Z,14.66
2018-07-10T03:26:31.114Z,14.66
2018-07-10T03:27:31.111Z,14.64
2018-07-10T03:28:31.106Z,14.63
2018-07-10T03:29:31.095Z,14.69
2018-07-10T03:30:31.104Z,14.7
2018-07-10T03:31:31.097Z,14.61
2018-07-10T03:32:30.566Z,14.59
2018-07-10T03:33:31.075Z,14.64
2018-07-10T03:34:30.811Z,14.57
2018-07-10T03:35:31.067Z,14.52
2018-07-10T03:36:31.456Z,14.53
2018-07-10T03:37:31.052Z,14.49
2018-07-10T03:38:30.788Z,14.48
2018-07-10T03:39:30.785Z,14.53
2018-07-10T03:40:31.038Z,14.51
2018-07-10T03:41:31.029Z,14.46
2018-07-10T03:42:30.765Z,14.52
2018-07-10T03:43:31.019Z,14.49
2018-07-10T03:44:31.010Z,14.51
2018-07-10T03:45:31.023Z,14.48
2018-07-10T03:46:30.998Z,14.51
2018-07-10T03:47:30.996Z,14.48
2018-07-10T03:48:30.991Z,14.39
2018-07-10T03:49:30.724Z,14.38
2018-07-10T03:50:30.719Z,14.39
2018-07-10T03:51:30.715Z,14.41
2018-07-10T03:52:30.710Z,14.34
2018-07-10T03:53:30.700Z,14.34
2018-07-10T03:54:30.699Z,14.38
2018-07-10T03:55:30.947Z,14.31
2018-07-10T03:56:30.940Z,14.41
2018-07-10T03:57:30.946Z,14.36
2018-07-10T03:58:30.671Z,14.39
2018-07-10T03:59:30.924Z,14.36
2018-07-10T04:00:30.917Z,14.28
2018-07-10T04:01:30.987Z,14.36
2018-07-10T04:02:30.908Z,14.31
2018-07-10T04:03:30.640Z,14.33
2018-07-10T04:04:30.379Z,14.44
2018-07-10T04:05:30.885Z,14.39
2018-07-10T04:06:30.624Z,14.38
2018-07-10T04:07:30.879Z,14.27
2018-07-10T04:08:30.880Z,14.31
2018-07-10T04:09:30.350Z,14.3
2018-07-10T04:10:30.342Z,14.31
2018-07-10T04:11:30.860Z,14.28
2018-07-10T04:12:30.590Z,14.27
2018-07-10T04:13:30.839Z,14.28
2018-07-10T04:14:30.832Z,14.27
2018-07-10T04:15:30.829Z,14.28
2018-07-10T04:16:30.566Z,14.19
2018-07-10T04:17:30.819Z,14.13
2018-07-10T04:18:30.813Z,14.05
2018-07-10T04:19:30.290Z,14.08
2018-07-10T04:20:30.796Z,14.03
2018-07-10T04:21:30.800Z,14.06
2018-07-10T04:22:30.272Z,14.08
2018-07-10T04:23:30.265Z,13.95
2018-07-10T04:24:30.771Z,13.99
2018-07-10T04:25:30.767Z,13.99
2018-07-10T04:26:30.762Z,13.99
2018-07-10T04:27:30.496Z,13.99
2018-07-10T04:28:30.747Z,13.91
2018-07-10T04:29:30.752Z,13.9
2018-07-10T04:30:30.479Z,13.94
2018-07-10T04:31:30.472Z,13.81
2018-07-10T04:32:30.724Z,13.87
2018-07-10T04:33:30.714Z,13.83
2018-07-10T04:34:30.458Z,13.84
2018-07-10T04:35:30.711Z,13.83
2018-07-10T04:36:30.698Z,13.83
2018-07-10T04:37:30.697Z,13.86
2018-07-10T04:38:30.685Z,13.83
2018-07-10T04:39:30.679Z,13.81
2018-07-10T04:40:30.418Z,13.79
2018-07-10T04:41:30.414Z,13.75
2018-07-10T04:42:31.001Z,13.84
2018-07-10T04:43:30.654Z,13.79
2018-07-10T04:44:30.395Z,13.75
2018-07-10T04:45:30.644Z,13.81
2018-07-10T04:46:30.637Z,13.78
2018-07-10T04:47:30.627Z,13.79
2018-07-10T04:48:30.621Z,13.81
2018-07-10T04:49:31.034Z,13.75
2018-07-10T04:50:30.608Z,13.66
2018-07-10T04:51:30.600Z,13.72
2018-07-10T04:52:30.082Z,13.72
2018-07-10T04:53:30.591Z,13.69
2018-07-10T04:54:30.332Z,13.78
2018-07-10T04:55:30.118Z,13.78
2018-07-10T04:56:30.573Z,13.79
2018-07-10T04:57:30.306Z,13.78
2018-07-10T04:58:30.556Z,13.83
2018-07-10T04:59:30.294Z,13.76
2018-07-10T05:00:30.288Z,13.69
2018-07-10T05:01:30.569Z,13.66
2018-07-10T05:02:30.272Z,13.83
2018-07-10T05:03:30.542Z,13.73
2018-07-10T05:04:30.261Z,13.72
2018-07-10T05:05:30.512Z,13.78
2018-07-10T05:06:30.511Z,13.72
2018-07-10T05:07:30.248Z,13.73
2018-07-10T05:08:30.494Z,13.83
2018-07-10T05:09:30.500Z,13.79
2018-07-10T05:10:30.487Z,13.78
2018-07-10T05:11:30.471Z,13.75
2018-07-10T05:12:30.469Z,13.87
2018-07-10T05:13:30.458Z,13.84
2018-07-10T05:14:30.459Z,13.79
2018-07-10T05:15:29.932Z,13.9
2018-07-10T05:16:30.442Z,13.86
2018-07-10T05:17:30.180Z,13.86
2018-07-10T05:18:30.176Z,13.86
2018-07-10T05:19:29.905Z,13.93
2018-07-10T05:20:30.412Z,13.94
2018-07-10T05:21:30.415Z,13.95
2018-07-10T05:22:30.405Z,13.83
2018-07-10T05:23:30.396Z,13.91
2018-07-10T05:24:30.130Z,13.95
2018-07-10T05:25:30.385Z,13.94
2018-07-10T05:26:30.378Z,13.87
2018-07-10T05:27:30.368Z,13.83
2018-07-10T05:28:30.362Z,13.97
2018-07-10T05:29:30.369Z,13.94
2018-07-10T05:30:30.354Z,13.94
2018-07-10T05:31:30.342Z,13.94
2018-07-10T05:32:29.825Z,13.91
2018-07-10T05:33:30.329Z,13.99
2018-07-10T05:34:30.070Z,13.94
2018-07-10T05:35:30.316Z,13.97
2018-07-10T05:36:30.313Z,13.99
2018-07-10T05:37:30.306Z,13.93
2018-07-10T05:38:30.043Z,14.01
2018-07-10T05:39:30.036Z,13.95
2018-07-10T05:40:30.285Z,14.09
2018-07-10T05:41:30.285Z,14.11
2018-07-10T05:42:30.275Z,14.09
2018-07-10T05:43:30.013Z,14.05
2018-07-10T05:44:30.006Z,14.02
2018-07-10T05:45:29.997Z,14.08
2018-07-10T05:46:30.502Z,14.02
2018-07-10T05:47:30.248Z,14.06
2018-07-10T05:48:30.232Z,14.01
2018-07-10T05:49:29.970Z,14.08
2018-07-10T05:50:29.969Z,14.09
2018-07-10T05:51:30.218Z,14.08
2018-07-10T05:52:29.958Z,14.13
2018-07-10T05:53:30.204Z,14.21
2018-07-10T05:54:29.941Z,14.27
2018-07-10T05:55:30.195Z,14.27
2018-07-10T05:56:30.191Z,14.27
2018-07-10T05:57:29.926Z,14.34
2018-07-10T05:58:30.327Z,14.33
2018-07-10T05:59:30.183Z,14.42
2018-07-10T06:00:30.168Z,14.46
2018-07-10T06:01:29.899Z,14.46
2018-07-10T06:02:30.152Z,14.53
2018-07-10T06:03:30.150Z,14.42
2018-07-10T06:04:29.673Z,14.51
2018-07-10T06:05:29.879Z,14.46
2018-07-10T06:06:29.870Z,14.49
2018-07-10T06:07:29.869Z,14.49
2018-07-10T06:08:30.117Z,14.56
2018-07-10T06:09:30.110Z,14.6
2018-07-10T06:10:30.219Z,14.63
2018-07-10T06:11:30.098Z,14.67
2018-07-10T06:12:30.094Z,14.66
2018-07-10T06:13:29.830Z,14.75
2018-07-10T06:14:29.827Z,14.77
2018-07-10T06:15:30.077Z,14.8
2018-07-10T06:16:29.814Z,14.93
2018-07-10T06:17:30.064Z,15.04
2018-07-10T06:18:29.803Z,15.08
2018-07-10T06:19:29.799Z,15.13
2018-07-10T06:20:30.049Z,15.22
2018-07-10T06:21:29.790Z,15.2
2018-07-10T06:22:29.527Z,15.34
2018-07-10T06:23:29.782Z,15.3
2018-07-10T06:24:29.769Z,15.4
2018-07-10T06:25:30.022Z,15.44
2018-07-10T06:26:30.020Z,15.37
2018-07-10T06:27:30.015Z,15.41
2018-07-10T06:28:30.011Z,15.45
2018-07-10T06:29:30.007Z,15.43
2018-07-10T06:30:30.349Z,15.56
2018-07-10T06:31:29.992Z,15.59
2018-07-10T06:32:29.730Z,15.55
2018-07-10T06:33:29.980Z,15.55
2018-07-10T06:34:29.720Z,15.59
2018-07-10T06:35:29.970Z,15.53
2018-07-10T06:36:30.001Z,15.59
2018-07-10T06:37:29.959Z,15.49
2018-07-10T06:38:29.698Z,15.53
2018-07-10T06:39:29.692Z,15.51
2018-07-10T06:40:29.947Z,15.51
2018-07-10T06:41:29.690Z,15.56
2018-07-10T06:42:29.935Z,15.56
2018-07-10T06:43:29.932Z,15.52
2018-07-10T06:44:29.666Z,15.53
2018-07-10T06:45:29.921Z,15.49
2018-07-10T06:46:29.916Z,15.55
2018-07-10T06:47:29.913Z,15.43
2018-07-10T06:48:29.915Z,15.51
2018-07-10T06:49:29.649Z,15.53
2018-07-10T06:50:29.898Z,15.47
2018-07-10T06:51:29.894Z,15.41
2018-07-10T06:52:30.513Z,15.53
2018-07-10T06:53:30.234Z,15.43
2018-07-10T06:54:29.637Z,15.53
2018-07-10T06:55:29.623Z,15.53
2018-07-10T06:56:29.865Z,15.53
2018-07-10T06:57:29.858Z,15.56
2018-07-10T06:58:29.852Z,15.56
2018-07-10T06:59:29.868Z,15.58
2018-07-10T07:00:29.848Z,15.63
2018-07-10T07:01:29.839Z,15.7
2018-07-10T07:02:29.577Z,15.78
2018-07-10T07:03:29.317Z,15.96
2018-07-10T07:04:29.833Z,16.08
2018-07-10T07:05:29.567Z,16.18
2018-07-10T07:06:29.820Z,16.32
2018-07-10T07:07:29.556Z,16.39
2018-07-10T07:08:29.293Z,16.45
2018-07-10T07:09:29.545Z,16.66
2018-07-10T07:10:29.800Z,16.77
2018-07-10T07:11:29.804Z,17.02
2018-07-10T07:12:29.791Z,17.13
2018-07-10T07:13:29.794Z,17.2
2018-07-10T07:14:29.783Z,17.35
2018-07-10T07:15:29.782Z,17.49
2018-07-10T07:16:29.775Z,17.47
2018-07-10T07:17:29.514Z,17.5
2018-07-10T07:18:29.512Z,17.55
2018-07-10T07:19:29.529Z,17.49
2018-07-10T07:20:29.759Z,17.49
2018-07-10T07:21:29.755Z,17.5
2018-07-10T07:22:29.494Z,17.6
2018-07-10T07:23:29.748Z,17.6
2018-07-10T07:24:29.488Z,17.58
2018-07-10T07:25:29.482Z,17.62
2018-07-10T07:26:29.227Z,17.47
2018-07-10T07:27:29.732Z,17.49
2018-07-10T07:28:29.734Z,17.43
2018-07-10T07:29:29.799Z,17.3
2018-07-10T07:30:29.727Z,17.4
2018-07-10T07:31:29.718Z,17.18
2018-07-10T07:32:29.464Z,17.24
2018-07-10T07:33:29.714Z,17.07
2018-07-10T07:34:29.706Z,17.05
2018-07-10T07:35:29.703Z,17.13
2018-07-10T07:36:29.703Z,16.91
2018-07-10T07:37:29.440Z,16.99
2018-07-10T07:38:29.442Z,16.74
2018-07-10T07:39:29.694Z,16.7
2018-07-10T07:40:29.430Z,16.67
2018-07-10T07:41:29.688Z,16.51
2018-07-10T07:42:29.679Z,16.48
2018-07-10T07:43:29.683Z,16.42
2018-07-10T07:44:29.935Z,16.32
2018-07-10T07:45:29.414Z,16.13
2018-07-10T07:46:29.664Z,16.18
2018-07-10T07:47:29.412Z,16
2018-07-10T07:48:29.399Z,15.88
2018-07-10T07:49:29.396Z,15.75
2018-07-10T07:50:29.652Z,15.58
2018-07-10T07:51:29.655Z,15.4
2018-07-10T07:52:29.808Z,15.23
2018-07-10T07:53:29.379Z,15.08
2018-07-10T07:54:29.637Z,15.02
2018-07-10T07:55:29.633Z,14.7
2018-07-10T07:56:29.364Z,14.48
2018-07-10T07:57:29.621Z,14.28
2018-07-10T07:58:29.813Z,14.27
2018-07-10T07:59:29.630Z,14.06
2018-07-10T08:00:29.166Z,14.03
2018-07-10T08:01:29.604Z,13.79
2018-07-10T08:02:29.597Z,13.75
2018-07-10T08:03:29.584Z,13.6
2018-07-10T08:04:29.331Z,13.55
2018-07-10T08:05:29.588Z,13.57
2018-07-10T08:06:29.571Z,13.55
2018-07-10T08:07:29.572Z,13.47
2018-07-10T08:08:29.555Z,13.45
2018-07-10T08:09:29.561Z,13.47
2018-07-10T08:10:29.546Z,13.45
2018-07-10T08:11:29.282Z,13.4
2018-07-10T08:12:29.536Z,13.51
2018-07-10T08:13:29.529Z,13.53
2018-07-10T08:14:29.523Z,13.48
2018-07-10T08:15:29.264Z,13.45
2018-07-10T08:16:29.518Z,13.51
2018-07-10T08:17:29.511Z,13.53
2018-07-10T08:18:29.495Z,13.5
2018-07-10T08:19:29.491Z,13.45
2018-07-10T08:20:29.485Z,13.48
2018-07-10T08:21:29.220Z,13.36
2018-07-10T08:22:29.473Z,13.31
2018-07-10T08:23:29.207Z,13.21
2018-07-10T08:24:29.665Z,13.16
2018-07-10T08:25:29.453Z,13.25
2018-07-10T08:26:29.458Z,13.21
2018-07-10T08:27:29.438Z,13.13
2018-07-10T08:28:29.174Z,13.2
2018-07-10T08:29:29.174Z,13.17
2018-07-10T08:30:29.418Z,13.14
2018-07-10T08:31:29.413Z,13.09
2018-07-10T08:32:29.148Z,13.13
2018-07-10T08:33:29.753Z,13.11
2018-07-10T08:34:29.391Z,13.16
2018-07-10T08:35:29.390Z,13.07
2018-07-10T08:36:29.376Z,12.95
2018-07-10T08:37:29.381Z,12.96
2018-07-10T08:38:29.108Z,12.83
2018-07-10T08:39:29.103Z,12.83
2018-07-10T08:40:29.098Z,12.73
2018-07-10T08:41:29.347Z,12.76
2018-07-10T08:42:28.822Z,12.73
2018-07-10T08:43:29.331Z,12.65
2018-07-10T08:44:29.076Z,12.62
2018-07-10T08:45:29.057Z,12.62
2018-07-10T08:46:29.324Z,12.61
2018-07-10T08:47:29.303Z,12.58
2018-07-10T08:48:29.037Z,12.62
2018-07-10T08:49:29.297Z,12.61
2018-07-10T08:50:29.303Z,12.63
2018-07-10T08:51:29.274Z,12.71
2018-07-10T08:52:29.016Z,12.78
2018-07-10T08:53:29.003Z,12.81
2018-07-10T08:54:28.743Z,12.78
2018-07-10T08:55:29.252Z,12.83
2018-07-10T08:56:28.992Z,12.81
2018-07-10T08:57:29.236Z,12.84
2018-07-10T08:58:29.225Z,12.89
2018-07-10T08:59:28.964Z,12.89
2018-07-10T09:00:29.217Z,12.91
2018-07-10T09:01:28.953Z,12.84
2018-07-10T09:02:28.943Z,12.84
2018-07-10T09:03:29.194Z,12.94
2018-07-10T09:04:29.190Z,12.95
2018-07-10T09:05:28.925Z,12.95
2018-07-10T09:06:29.175Z,12.95
2018-07-10T09:07:29.169Z,13.01
2018-07-10T09:08:29.165Z,12.91
2018-07-10T09:09:29.160Z,12.92
2018-07-10T09:10:29.151Z,12.95
2018-07-10T09:11:29.140Z,12.89
2018-07-10T09:12:29.135Z,12.94
2018-07-10T09:13:29.130Z,12.88
2018-07-10T09:14:28.868Z,12.89
2018-07-10T09:15:29.117Z,12.95
2018-07-10T09:16:29.107Z,13.1
2018-07-10T09:17:28.854Z,13.1
2018-07-10T09:18:29.093Z,13.09
2018-07-10T09:19:28.834Z,13.13
2018-07-10T09:20:29.085Z,13.16
2018-07-10T09:21:29.075Z,13.13
2018-07-10T09:22:29.069Z,13.19
2018-07-10T09:23:29.064Z,13.14
2018-07-10T09:24:29.061Z,13.1
2018-07-10T09:25:28.793Z,13.16
2018-07-10T09:26:28.788Z,13.13
2018-07-10T09:27:29.040Z,13.09
2018-07-10T09:28:28.777Z,13.11
2018-07-10T09:29:29.024Z,12.95
2018-07-10T09:30:28.760Z,12.95
2018-07-10T09:31:29.008Z,12.99
2018-07-10T09:32:29.004Z,12.91
2018-07-10T09:33:29.119Z,12.91
2018-07-10T09:34:28.732Z,12.86
2018-07-10T09:35:28.730Z,12.78
2018-07-10T09:36:28.977Z,12.71
2018-07-10T09:37:28.972Z,12.76
2018-07-10T09:38:28.706Z,12.7
2018-07-10T09:39:28.443Z,12.61
2018-07-10T09:40:28.951Z,12.61
2018-07-10T09:41:28.947Z,12.58
2018-07-10T09:42:28.687Z,12.61
2018-07-10T09:43:28.929Z,12.53
2018-07-10T09:44:28.666Z,12.56
2018-07-10T09:45:28.920Z,12.56
2018-07-10T09:46:28.695Z,12.59
2018-07-10T09:47:28.647Z,12.53
2018-07-10T09:48:28.638Z,12.61
2018-07-10T09:49:28.896Z,12.62
2018-07-10T09:50:28.889Z,12.58
2018-07-10T09:51:28.883Z,12.71
2018-07-10T09:52:28.610Z,12.78
2018-07-10T09:53:28.864Z,12.86
2018-07-10T09:54:28.597Z,12.91
2018-07-10T09:55:28.852Z,12.92
2018-07-10T09:56:28.840Z,12.96
2018-07-10T09:57:28.835Z,12.94
2018-07-10T09:58:28.825Z,13.09
2018-07-10T09:59:28.823Z,13.09
2018-07-10T10:00:28.815Z,13.03
2018-07-10T10:01:28.553Z,13.1
2018-07-10T10:02:28.811Z,13.1
2018-07-10T10:03:28.804Z,13.03
2018-07-10T10:04:28.800Z,13.16
2018-07-10T10:05:28.780Z,13.11
2018-07-10T10:06:28.774Z,13.2
2018-07-10T10:07:28.768Z,13.35
2018-07-10T10:08:28.955Z,13.44
2018-07-10T10:09:28.498Z,13.45
2018-07-10T10:10:28.496Z,13.55
2018-07-10T10:11:28.752Z,13.55
2018-07-10T10:12:28.737Z,13.57
2018-07-10T10:13:28.519Z,13.65
2018-07-10T10:14:28.725Z,13.68
2018-07-10T10:15:28.463Z,13.72
2018-07-10T10:16:28.712Z,13.69
2018-07-10T10:17:28.478Z,13.66
2018-07-10T10:18:28.705Z,13.62
2018-07-10T10:19:28.438Z,13.63
2018-07-10T10:20:28.697Z,13.76
2018-07-10T10:21:28.429Z,13.63
2018-07-10T10:22:28.423Z,13.72
2018-07-10T10:23:28.671Z,13.69
2018-07-10T10:24:28.671Z,13.81
2018-07-10T10:25:28.404Z,13.76
2018-07-10T10:26:28.658Z,13.87
2018-07-10T10:27:28.391Z,13.86
2018-07-10T10:28:28.640Z,13.91
2018-07-10T10:29:28.637Z,13.88
2018-07-10T10:30:28.632Z,14.01
2018-07-10T10:31:28.366Z,13.97
2018-07-10T10:32:28.618Z,13.93
2018-07-10T10:33:28.360Z,14.01
2018-07-10T10:34:28.350Z,13.94
2018-07-10T10:35:28.609Z,13.9
2018-07-10T10:36:28.606Z,13.84
2018-07-10T10:37:28.590Z,13.9
2018-07-10T10:38:28.580Z,13.81
2018-07-10T10:39:28.072Z,13.87
2018-07-10T10:40:28.568Z,13.87
2018-07-10T10:41:28.698Z,13.88
2018-07-10T10:42:28.570Z,13.94
2018-07-10T10:43:28.303Z,14.02
2018-07-10T10:44:28.293Z,13.95
2018-07-10T10:45:28.286Z,14.06
2018-07-10T10:46:28.022Z,14.13
2018-07-10T10:47:28.538Z,14.16
2018-07-10T10:48:28.528Z,14.09
2018-07-10T10:49:28.653Z,14.06
2018-07-10T10:50:28.260Z,14.05
2018-07-10T10:51:28.504Z,13.99
2018-07-10T10:52:28.248Z,14.13
2018-07-10T10:53:28.496Z,14.19
2018-07-10T10:54:27.975Z,14.19
2018-07-10T10:55:28.484Z,14.11
2018-07-10T10:56:28.478Z,14.09
2018-07-10T10:57:28.215Z,14.15
2018-07-10T10:58:28.466Z,14.23
2018-07-10T10:59:28.201Z,14.24
2018-07-10T11:00:27.949Z,14.3
2018-07-10T11:01:28.451Z,14.28
2018-07-10T11:02:28.543Z,14.48
2018-07-10T11:03:28.181Z,14.51
2018-07-10T11:04:28.176Z,14.49
2018-07-10T11:05:28.176Z,14.66
2018-07-10T11:06:28.426Z,14.61
2018-07-10T11:07:28.419Z,14.69
2018-07-10T11:08:28.418Z,14.7
2018-07-10T11:09:28.406Z,14.71
2018-07-10T11:10:28.400Z,14.87
2018-07-10T11:11:27.880Z,15.02
2018-07-10T11:12:28.132Z,15.07
2018-07-10T11:13:28.384Z,15.1
2018-07-10T11:14:27.865Z,15.15
2018-07-10T11:15:28.210Z,15.15
2018-07-10T11:16:28.112Z,15.22
2018-07-10T11:17:28.361Z,15.33
2018-07-10T11:18:28.360Z,15.3
2018-07-10T11:19:28.378Z,15.3
2018-07-10T11:20:28.350Z,15.4
2018-07-10T11:21:28.347Z,15.44
2018-07-10T11:22:28.339Z,15.4
2018-07-10T11:23:28.088Z,15.4
2018-07-10T11:24:27.817Z,15.37
2018-07-10T11:25:28.068Z,15.37
2018-07-10T11:26:28.328Z,15.23
2018-07-10T11:27:28.321Z,15.23
2018-07-10T11:28:28.311Z,15.16
2018-07-10T11:29:28.305Z,15.01
2018-07-10T11:30:28.367Z,14.87
2018-07-10T11:31:28.299Z,14.89
2018-07-10T11:32:28.042Z,14.67
2018-07-10T11:33:28.033Z,14.69
2018-07-10T11:34:27.774Z,14.63
2018-07-10T11:35:28.279Z,14.59
2018-07-10T11:36:28.274Z,14.44
2018-07-10T11:37:28.011Z,14.48
2018-07-10T11:38:28.265Z,14.51
2018-07-10T11:39:28.632Z,14.38
2018-07-10T11:40:28.253Z,14.28
2018-07-10T11:41:28.249Z,14.26
2018-07-10T11:42:28.244Z,14.24
2018-07-10T11:43:27.978Z,14.2
2018-07-10T11:44:27.975Z,14.12
2018-07-10T11:45:27.711Z,14.11
2018-07-10T11:46:28.222Z,14.19
2018-07-10T11:47:28.220Z,14.05
2018-07-10T11:48:28.209Z,14.11
2018-07-10T11:49:28.211Z,14.03
2018-07-10T11:50:28.202Z,14.01
2018-07-10T11:51:28.588Z,13.99
2018-07-10T11:52:27.929Z,13.93
2018-07-10T11:53:27.924Z,14.08
2018-07-10T11:54:28.178Z,14.01
2018-07-10T11:55:28.169Z,13.97
2018-07-10T11:56:28.164Z,13.99
2018-07-10T11:57:28.154Z,13.95
2018-07-10T11:58:28.151Z,13.93
2018-07-10T11:59:28.144Z,13.99
2018-07-10T12:00:28.140Z,13.86
2018-07-10T12:01:28.133Z,13.72
2018-07-10T12:02:27.876Z,13.69
2018-07-10T12:03:28.123Z,13.58
2018-07-10T12:04:28.118Z,13.55
2018-07-10T12:05:28.109Z,13.55
2018-07-10T12:06:28.107Z,13.54
2018-07-10T12:07:28.097Z,13.53
2018-07-10T12:08:28.090Z,13.53
2018-07-10T12:09:28.084Z,13.57
2018-07-10T12:10:28.084Z,13.51
2018-07-10T12:11:27.560Z,13.53
2018-07-10T12:12:28.122Z,13.55
2018-07-10T12:13:28.064Z,13.53
2018-07-10T12:14:28.054Z,13.69
2018-07-10T12:15:28.049Z,13.65
2018-07-10T12:16:27.783Z,13.68
2018-07-10T12:17:28.037Z,13.68
2018-07-10T12:18:28.031Z,13.72
2018-07-10T12:19:27.764Z,13.7
2018-07-10T12:20:28.015Z,13.84
2018-07-10T12:21:28.017Z,13.9
2018-07-10T12:22:28.003Z,14.02
2018-07-10T12:23:27.998Z,14.08
2018-07-10T12:24:27.994Z,14.11
2018-07-10T12:25:27.988Z,14.2
2018-07-10T12:26:27.724Z,14.27
2018-07-10T12:27:27.973Z,14.33
2018-07-10T12:28:27.716Z,14.39
2018-07-10T12:29:27.707Z,14.56
2018-07-10T12:30:27.959Z,14.67
2018-07-10T12:31:27.953Z,14.71
2018-07-10T12:32:27.688Z,14.86
2018-07-10T12:33:27.939Z,14.94
2018-07-10T12:34:27.674Z,14.98
2018-07-10T12:35:27.927Z,14.89
2018-07-10T12:36:27.665Z,14.8
2018-07-10T12:37:27.914Z,14.87
2018-07-10T12:38:27.936Z,14.85
2018-07-10T12:39:27.925Z,14.85
2018-07-10T12:40:27.644Z,14.87
2018-07-10T12:41:27.891Z,14.94
2018-07-10T12:42:27.629Z,15.02
2018-07-10T12:43:27.623Z,15.05
2018-07-10T12:44:27.877Z,15.08
2018-07-10T12:45:27.868Z,15.12
2018-07-10T12:46:27.864Z,15.22
2018-07-10T12:47:27.868Z,15.26
2018-07-10T12:48:27.342Z,15.35
2018-07-10T12:49:28.045Z,15.45
2018-07-10T12:50:27.846Z,15.49
2018-07-10T12:51:27.837Z,15.51
2018-07-10T12:52:27.842Z,15.44
2018-07-10T12:53:27.571Z,15.52
2018-07-10T12:54:27.309Z,15.53
2018-07-10T12:55:27.819Z,15.58